Time;durP1;ratioP1;P1;durP2;ratioP2;P2;SDS_P1;SDS_P2;PMS_P1;PMS_P2;Temp;Humidity;BMP_temperature;BMP_pressure;BME280_temperature;BME280_humidity;BME280_pressure;Samples;Min_cycle;Max_cycle;Signal;HPM_P1;HPM_P2
2023/01/07 00:01:33;;;;;;;9.73;5.20;;;11.70;99.90;;;;;;5080916;28;20208;-80
2023/01/07 00:04:13;;;;;;;9.95;4.95;;;11.70;99.90;;;;;;5080565;28;20214;-80
2023/01/07 00:06:40;;;;;;;7.97;4.78;;;11.90;99.90;;;;;;5086259;28;20198;-80
2023/01/07 00:09:10;;;;;;;7.32;4.53;;;11.90;99.90;;;;;;5062123;28;20269;-85
2023/01/07 00:11:38;;;;;;;5.03;4.00;;;11.80;99.90;;;;;;5071579;28;20170;-83
2023/01/07 00:14:06;;;;;;;7.78;4.18;;;11.80;99.90;;;;;;5072301;28;20722;-80
2023/01/07 00:16:33;;;;;;;8.15;4.22;;;11.50;99.90;;;;;;5072587;28;20253;-80
2023/01/07 00:19:00;;;;;;;7.07;3.65;;;11.60;99.90;;;;;;5071319;28;20167;-91
2023/01/07 00:21:27;;;;;;;7.05;3.95;;;11.40;99.90;;;;;;5072767;28;20181;-89
2023/01/07 00:23:55;;;;;;;8.07;4.25;;;11.50;99.90;;;;;;5072172;28;20550;-80
2023/01/07 00:26:22;;;;;;;7.30;4.55;;;11.60;99.90;;;;;;5071948;28;20166;-82
2023/01/07 00:28:49;;;;;;;6.80;4.30;;;11.60;99.90;;;;;;5072169;28;20174;-89
2023/01/07 00:31:20;;;;;;;6.07;4.55;;;11.50;99.90;;;;;;5072978;28;20170;-90
2023/01/07 00:36:19;;;;;;;7.18;4.28;;;11.60;99.90;;;;;;5075937;28;20229;-80
2023/01/07 00:38:45;;;;;;;4.78;4.28;;;11.50;99.90;;;;;;5076290;28;20166;-81
2023/01/07 00:41:10;;;;;;;6.95;4.43;;;11.60;99.90;;;;;;5076050;28;20193;-80
2023/01/07 00:43:36;;;;;;;9.43;4.60;;;11.60;99.90;;;;;;5083607;28;20658;-79
2023/01/07 00:46:03;;;;;;;9.02;4.28;;;11.60;99.90;;;;;;5081944;28;20182;-80
2023/01/07 00:48:29;;;;;;;6.00;3.97;;;11.60;99.90;;;;;;5081879;28;20213;-85
2023/01/07 00:50:57;;;;;;;9.50;4.55;;;11.40;99.90;;;;;;5082223;28;20783;-79
2023/01/07 00:53:24;;;;;;;4.72;3.80;;;11.60;99.90;;;;;;5078646;28;20291;-80
2023/01/07 00:55:50;;;;;;;6.10;4.53;;;11.50;99.90;;;;;;5082339;28;20181;-81
2023/01/07 00:58:20;;;;;;;5.63;4.25;;;11.50;99.90;;;;;;5080447;28;20224;-79
2023/01/07 01:00:47;;;;;;;11.65;4.88;;;11.40;99.90;;;;;;5081381;28;20207;-88
2023/01/07 01:03:13;;;;;;;9.20;5.03;;;11.50;99.90;;;;;;5082242;28;20198;-82
2023/01/07 01:05:40;;;;;;;9.38;4.85;;;11.50;99.90;;;;;;5082560;28;20165;-79
2023/01/07 01:08:09;;;;;;;7.00;4.65;;;11.60;99.90;;;;;;5084088;28;20236;-80
2023/01/07 01:10:38;;;;;;;12.30;4.90;;;11.50;99.90;;;;;;5084114;28;20186;-80
2023/01/07 01:13:04;;;;;;;8.23;5.47;;;11.40;99.90;;;;;;5082680;28;20195;-80
2023/01/07 01:15:30;;;;;;;9.35;5.40;;;11.50;99.90;;;;;;5083668;28;20178;-83
2023/01/07 01:17:56;;;;;;;9.35;4.50;;;11.40;99.90;;;;;;5082506;28;20177;-79
2023/01/07 01:20:22;;;;;;;6.30;4.32;;;11.50;99.90;;;;;;5081222;28;20165;-79
2023/01/07 01:22:48;;;;;;;10.98;4.72;;;11.50;99.90;;;;;;5079792;28;20261;-80
2023/01/07 01:25:14;;;;;;;7.28;3.90;;;11.70;99.90;;;;;;5080887;28;20644;-79
2023/01/07 01:27:40;;;;;;;5.93;3.67;;;11.80;99.90;;;;;;5079900;28;20202;-86
2023/01/07 01:30:06;;;;;;;7.18;4.47;;;11.70;99.90;;;;;;5080264;28;20217;-79
2023/01/07 01:32:34;;;;;;;5.60;3.92;;;11.80;99.90;;;;;;5084752;28;20158;-81
2023/01/07 01:35:00;;;;;;;4.63;3.95;;;11.80;99.90;;;;;;5069196;28;20198;-80
2023/01/07 01:37:26;;;;;;;4.88;3.80;;;11.90;99.90;;;;;;5080819;28;20189;-79
2023/01/07 01:39:52;;;;;;;4.28;2.90;;;12.00;99.90;;;;;;5082965;28;20190;-80
2023/01/07 01:42:23;;;;;;;9.68;3.72;;;11.90;99.90;;;;;;5080292;28;20174;-80
2023/01/07 01:44:50;;;;;;;3.72;3.35;;;11.90;99.90;;;;;;5080200;28;20231;-84
2023/01/07 01:47:38;;;;;;;6.13;4.22;;;11.90;99.90;;;;;;5074962;28;20206;-78
2023/01/07 01:50:16;;;;;;;3.83;3.53;;;12.00;99.90;;;;;;5075035;28;20170;-84
2023/01/07 01:52:52;;;;;;;6.72;3.10;;;11.90;99.90;;;;;;5074946;28;20167;-80
2023/01/07 01:55:22;;;;;;;3.72;3.42;;;11.80;99.90;;;;;;5073944;28;20173;-80
2023/01/07 01:57:52;;;;;;;4.18;3.75;;;11.90;99.90;;;;;;5074324;28;20166;-85
2023/01/07 02:00:17;;;;;;;3.17;2.95;;;12.00;99.90;;;;;;5072868;28;20178;-90
2023/01/07 02:02:50;;;;;;;4.05;3.65;;;12.10;99.90;;;;;;5073319;28;20170;-80
2023/01/07 02:05:17;;;;;;;6.88;4.05;;;12.10;99.90;;;;;;5073520;28;20174;-80
2023/01/07 02:07:43;;;;;;;5.15;3.95;;;12.10;99.90;;;;;;5083631;28;20222;-79
2023/01/07 02:10:13;;;;;;;3.92;3.63;;;12.10;99.90;;;;;;5081496;28;21222;-79
2023/01/07 02:12:51;;;;;;;6.35;3.83;;;12.00;99.90;;;;;;5082719;28;20181;-84
2023/01/07 02:15:44;;;;;;;5.13;3.17;;;12.00;99.90;;;;;;5086061;28;20178;-80
2023/01/07 02:18:37;;;;;;;3.85;3.45;;;12.00;99.90;;;;;;5084860;28;20166;-79
2023/01/07 02:21:32;;;;;;;3.92;3.38;;;12.10;99.90;;;;;;5082131;28;20228;-79
2023/01/07 02:24:47;;;;;;;9.20;3.35;;;12.10;99.90;;;;;;5084902;28;20714;-79
2023/01/07 02:27:34;;;;;;;4.60;3.65;;;12.10;99.90;;;;;;5080500;28;20202;-80
2023/01/07 02:30:31;;;;;;;5.60;3.35;;;12.10;99.90;;;;;;5083595;28;20281;-80
2023/01/07 02:33:03;;;;;;;5.65;3.85;;;12.10;99.90;;;;;;5084063;28;20572;-89
2023/01/07 02:36:15;;;;;;;4.47;3.10;;;12.00;99.90;;;;;;5082954;28;20174;-79
2023/01/07 02:39:21;;;;;;;3.10;2.80;;;12.20;99.90;;;;;;5067085;28;20186;-81
2023/01/07 02:41:47;;;;;;;7.03;2.75;;;12.10;99.90;;;;;;5072442;28;20669;-80
2023/01/07 02:44:30;;;;;;;5.40;2.70;;;12.10;99.90;;;;;;5071863;28;20217;-79
2023/01/07 02:46:58;;;;;;;5.15;3.00;;;12.20;99.90;;;;;;5073395;28;20287;-79
2023/01/07 02:49:24;;;;;;;3.58;2.78;;;12.20;99.90;;;;;;5073307;28;20174;-80
2023/01/07 02:51:51;;;;;;;4.53;2.83;;;12.30;99.90;;;;;;5073354;28;20209;-79
2023/01/07 02:54:21;;;;;;;4.50;2.70;;;12.20;99.90;;;;;;5072242;28;20247;-79
2023/01/07 02:57:08;;;;;;;3.85;2.42;;;12.10;99.90;;;;;;5071781;28;20163;-79
2023/01/07 03:00:01;;;;;;;2.63;2.40;;;12.10;99.90;;;;;;5072921;28;20189;-86
2023/01/07 03:02:26;;;;;;;5.07;2.40;;;12.20;99.90;;;;;;5073241;28;20163;-88
2023/01/07 03:05:10;;;;;;;3.40;2.65;;;12.30;99.90;;;;;;5072765;28;20188;-80
2023/01/07 03:08:04;;;;;;;4.53;2.45;;;12.30;99.90;;;;;;5072767;28;20678;-82
2023/01/07 03:10:39;;;;;;;5.57;2.10;;;12.30;99.90;;;;;;5072980;28;20678;-80
2023/01/07 03:13:15;;;;;;;3.72;2.08;;;12.40;99.90;;;;;;5072988;28;20193;-88
2023/01/07 03:16:11;;;;;;;7.18;2.30;;;12.30;99.90;;;;;;5073026;28;20245;-89
2023/01/07 03:18:41;;;;;;;2.25;2.05;;;12.30;99.90;;;;;;5072531;28;20194;-79
2023/01/07 03:21:11;;;;;;;3.63;2.00;;;12.30;99.90;;;;;;5072857;28;20224;-80
2023/01/07 03:23:44;;;;;;;3.10;2.08;;;12.20;99.90;;;;;;5072743;28;20178;-81
2023/01/07 03:26:12;;;;;;;2.08;1.88;;;12.20;99.90;;;;;;5072838;28;20167;-80
2023/01/07 03:28:41;;;;;;;3.85;2.10;;;12.20;99.90;;;;;;5071714;28;20237;-79
2023/01/07 03:31:11;;;;;;;1.98;1.55;;;12.30;99.90;;;;;;5072801;28;20594;-84
2023/01/07 03:34:09;;;;;;;3.17;1.70;;;12.30;99.90;;;;;;5073267;28;20736;-81
2023/01/07 03:36:44;;;;;;;1.60;1.50;;;12.30;99.90;;;;;;5071347;28;20269;-80
2023/01/07 03:39:12;;;;;;;3.67;1.80;;;12.20;99.90;;;;;;5072729;28;20166;-86
2023/01/07 03:44:23;;;;;;;1.50;1.40;;;12.10;99.90;;;;;;5072904;28;20213;-80
2023/01/07 03:46:50;;;;;;;3.08;1.55;;;12.30;99.90;;;;;;5071463;28;20343;-79
2023/01/07 03:49:16;;;;;;;1.67;1.52;;;12.30;99.90;;;;;;5072584;28;20245;-88
2023/01/07 03:51:41;;;;;;;1.35;1.25;;;12.40;99.90;;;;;;5072719;28;20202;-80
2023/01/07 03:54:07;;;;;;;3.72;1.17;;;12.30;99.90;;;;;;5072363;28;20174;-83
2023/01/07 03:56:32;;;;;;;2.78;1.48;;;12.30;99.90;;;;;;5072384;28;20162;-82
2023/01/07 03:58:58;;;;;;;2.28;1.50;;;12.30;99.90;;;;;;5073227;28;20167;-80
2023/01/07 04:01:24;;;;;;;2.95;1.50;;;12.30;99.90;;;;;;5072780;28;20619;-83
2023/01/07 04:03:49;;;;;;;1.45;1.30;;;12.10;99.90;;;;;;5072541;28;20186;-84
2023/01/07 04:06:15;;;;;;;4.47;1.48;;;12.20;99.90;;;;;;5075102;28;20170;-83
2023/01/07 04:08:40;;;;;;;2.22;1.55;;;12.10;99.90;;;;;;5076359;28;20281;-80
2023/01/07 04:11:06;;;;;;;1.52;0.93;;;12.10;99.90;;;;;;5076278;28;20193;-80
2023/01/07 04:13:32;;;;;;;3.25;1.52;;;12.20;99.90;;;;;;5075113;28;20194;-80
2023/01/07 04:15:57;;;;;;;1.70;1.30;;;12.10;99.90;;;;;;5077811;28;20253;-80
2023/01/07 04:18:23;;;;;;;1.83;1.38;;;12.10;99.90;;;;;;5078664;28;20165;-79
2023/01/07 04:20:48;;;;;;;3.67;1.15;;;12.20;99.90;;;;;;5080312;28;20178;-83
2023/01/07 04:23:15;;;;;;;1.02;0.93;;;12.10;99.90;;;;;;5076439;28;20182;-80
2023/01/07 04:25:40;;;;;;;1.40;1.00;;;12.00;99.90;;;;;;5076336;28;20246;-81
2023/01/07 04:28:06;;;;;;;2.75;1.25;;;12.00;99.90;;;;;;5075785;28;20301;-88
2023/01/07 04:30:32;;;;;;;4.88;1.20;;;12.00;99.90;;;;;;5075909;28;20184;-80
2023/01/07 04:32:58;;;;;;;1.88;1.45;;;12.00;99.90;;;;;;5075979;28;20220;-80
2023/01/07 04:35:24;;;;;;;1.35;1.15;;;12.10;99.90;;;;;;5076016;28;20166;-81
2023/01/07 04:37:50;;;;;;;5.72;1.60;;;12.20;99.90;;;;;;5075014;28;20171;-80
2023/01/07 04:40:16;;;;;;;1.33;1.15;;;12.10;99.90;;;;;;5075912;28;20167;-80
2023/01/07 04:42:41;;;;;;;1.40;1.02;;;12.00;99.90;;;;;;5074605;28;20572;-87
2023/01/07 04:45:07;;;;;;;1.25;1.13;;;12.10;99.90;;;;;;5076019;28;20344;-80
2023/01/07 04:47:33;;;;;;;1.25;1.13;;;12.30;99.90;;;;;;5075761;28;20249;-79
2023/01/07 04:49:58;;;;;;;1.00;0.90;;;12.30;99.90;;;;;;5075643;28;20163;-79
2023/01/07 04:52:24;;;;;;;1.35;1.25;;;12.20;99.90;;;;;;5075811;28;20223;-79
2023/01/07 04:54:50;;;;;;;1.40;1.30;;;12.10;99.90;;;;;;5080217;28;20254;-83
2023/01/07 04:57:17;;;;;;;1.85;1.00;;;12.00;99.90;;;;;;5063302;28;20178;-80
2023/01/07 04:59:43;;;;;;;3.20;0.95;;;12.00;99.90;;;;;;5080527;28;20154;-80
2023/01/07 05:02:08;;;;;;;1.70;1.23;;;12.00;99.90;;;;;;5078144;28;20186;-80
2023/01/07 05:04:34;;;;;;;1.25;1.10;;;12.10;99.90;;;;;;5078733;28;20213;-79
2023/01/07 05:07:00;;;;;;;1.10;1.00;;;12.00;99.90;;;;;;5076880;28;20194;-80
2023/01/07 05:09:27;;;;;;;1.05;0.80;;;12.10;99.90;;;;;;5076445;28;20173;-80
2023/01/07 05:11:53;;;;;;;0.82;0.82;;;12.10;99.90;;;;;;5078405;28;20163;-81
2023/01/07 05:14:18;;;;;;;3.15;0.90;;;12.00;99.90;;;;;;5078020;28;20704;-80
2023/01/07 05:16:44;;;;;;;2.05;0.90;;;12.00;99.90;;;;;;5077239;28;20170;-81
2023/01/07 05:19:10;;;;;;;0.77;0.77;;;12.10;99.90;;;;;;5078495;28;20593;-79
2023/01/07 05:21:36;;;;;;;0.82;0.80;;;12.20;99.90;;;;;;5077439;28;20171;-81
2023/01/07 05:24:01;;;;;;;1.00;0.85;;;12.00;99.90;;;;;;5077949;28;20674;-80
2023/01/07 05:26:27;;;;;;;0.75;0.70;;;12.00;99.90;;;;;;5076310;28;20178;-80
2023/01/07 05:28:53;;;;;;;0.85;0.85;;;12.10;99.90;;;;;;5081579;28;20182;-79
2023/01/07 05:31:19;;;;;;;1.02;0.98;;;12.00;99.90;;;;;;5080978;28;20169;-80
2023/01/07 05:33:45;;;;;;;1.10;1.00;;;12.20;99.90;;;;;;5077618;28;20194;-79
2023/01/07 05:36:11;;;;;;;0.80;0.77;;;12.10;99.90;;;;;;5078418;28;20163;-80
2023/01/07 05:38:40;;;;;;;1.65;0.95;;;12.10;99.90;;;;;;5078405;28;20167;-79
2023/01/07 05:41:05;;;;;;;1.25;0.93;;;12.10;99.90;;;;;;5079763;28;20245;-83
2023/01/07 05:43:31;;;;;;;0.93;0.93;;;12.00;99.90;;;;;;5078832;28;20216;-80
2023/01/07 05:45:57;;;;;;;1.20;1.00;;;11.90;99.90;;;;;;5078240;28;20174;-80
2023/01/07 05:48:23;;;;;;;6.43;0.70;;;12.00;99.90;;;;;;5076868;28;20626;-80
2023/01/07 05:50:49;;;;;;;1.05;0.80;;;12.10;99.90;;;;;;5078149;28;20194;-80
2023/01/07 05:53:14;;;;;;;0.93;0.90;;;12.10;99.90;;;;;;5077478;28;20174;-80
2023/01/07 05:55:40;;;;;;;0.95;0.80;;;12.10;99.90;;;;;;5077471;28;20192;-80
2023/01/07 05:58:07;;;;;;;2.47;1.05;;;12.20;99.90;;;;;;5080136;28;20166;-80
2023/01/07 06:00:33;;;;;;;0.70;0.70;;;12.10;99.90;;;;;;5077274;28;20257;-81
2023/01/07 06:02:59;;;;;;;1.02;0.80;;;12.10;99.90;;;;;;5080518;28;20158;-80
2023/01/07 06:05:25;;;;;;;1.50;0.90;;;12.10;99.90;;;;;;5082160;28;20166;-80
2023/01/07 06:07:50;;;;;;;0.60;0.60;;;11.80;99.90;;;;;;5082940;28;20209;-79
2023/01/07 06:10:16;;;;;;;1.75;0.93;;;11.80;99.90;;;;;;5083788;28;20174;-87
2023/01/07 06:12:41;;;;;;;2.25;1.00;;;11.90;99.90;;;;;;5083584;28;20174;-79
2023/01/07 06:15:07;;;;;;;1.10;0.80;;;11.90;99.90;;;;;;5082437;28;20198;-80
2023/01/07 06:17:33;;;;;;;0.85;0.85;;;11.90;99.90;;;;;;5082095;28;20166;-80
2023/01/07 06:20:00;;;;;;;3.85;0.80;;;12.00;99.90;;;;;;5081763;28;20162;-79
2023/01/07 06:22:26;;;;;;;0.95;0.90;;;12.10;99.90;;;;;;5083217;28;20189;-79
2023/01/07 06:24:52;;;;;;;1.20;0.90;;;12.10;99.90;;;;;;5082149;28;20189;-79
2023/01/07 06:27:18;;;;;;;1.20;0.73;;;12.10;99.90;;;;;;5086407;28;20240;-80
2023/01/07 06:29:43;;;;;;;0.75;0.75;;;12.10;99.90;;;;;;5082299;28;20266;-79
2023/01/07 06:32:09;;;;;;;0.77;0.75;;;12.10;99.90;;;;;;5093750;28;20182;-82
2023/01/07 06:34:35;;;;;;;1.75;0.70;;;12.20;99.90;;;;;;5092743;28;20187;-80
2023/01/07 06:37:00;;;;;;;1.55;0.90;;;12.10;99.90;;;;;;5095182;28;20162;-82
2023/01/07 06:39:26;;;;;;;1.42;1.00;;;12.20;99.90;;;;;;5093945;28;20196;-83
2023/01/07 06:41:56;;;;;;;1.13;0.85;;;12.20;99.90;;;;;;5092803;28;20186;-80
2023/01/07 06:44:22;;;;;;;0.80;0.80;;;12.10;99.90;;;;;;5094226;28;20198;-80
2023/01/07 06:46:47;;;;;;;2.83;0.90;;;12.00;99.90;;;;;;5093704;28;20552;-80
2023/01/07 06:49:13;;;;;;;0.73;0.73;;;12.00;99.90;;;;;;5094531;28;20230;-81
2023/01/07 06:51:38;;;;;;;0.60;0.60;;;12.00;99.90;;;;;;5093451;28;20542;-80
2023/01/07 06:54:04;;;;;;;5.93;0.80;;;11.90;99.90;;;;;;5076263;28;20190;-82
2023/01/07 06:56:30;;;;;;;3.63;0.73;;;12.10;99.90;;;;;;5075777;28;20177;-80
2023/01/07 06:58:55;;;;;;;2.70;1.00;;;12.10;99.90;;;;;;5075117;28;20163;-85
2023/01/07 07:01:21;;;;;;;0.90;0.90;;;12.00;99.90;;;;;;5075583;28;20162;-79
2023/01/07 07:03:46;;;;;;;0.65;0.65;;;12.00;99.90;;;;;;5077314;28;20187;-79
2023/01/07 07:06:12;;;;;;;1.40;0.73;;;12.00;99.90;;;;;;5078381;28;20257;-80
2023/01/07 07:08:38;;;;;;;1.58;0.65;;;11.90;99.90;;;;;;5079856;28;20224;-80
2023/01/07 07:11:03;;;;;;;4.03;0.70;;;11.90;99.90;;;;;;5080630;28;20206;-90
2023/01/07 07:13:29;;;;;;;6.90;0.82;;;12.00;99.90;;;;;;5078402;28;20197;-79
2023/01/07 07:15:55;;;;;;;2.50;1.52;;;12.00;99.90;;;;;;5077513;28;20167;-79
2023/01/07 07:18:20;;;;;;;0.75;0.65;;;12.10;99.90;;;;;;5081951;28;20173;-80
2023/01/07 07:20:46;;;;;;;0.90;0.90;;;12.00;99.90;;;;;;5079804;28;20166;-80
2023/01/07 07:23:12;;;;;;;0.65;0.63;;;12.10;99.90;;;;;;5077859;28;20676;-79
2023/01/07 07:25:38;;;;;;;0.93;0.93;;;12.10;99.90;;;;;;5077646;28;20197;-80
2023/01/07 07:28:04;;;;;;;0.65;0.65;;;12.10;99.90;;;;;;5076472;28;20201;-81
2023/01/07 07:30:29;;;;;;;1.27;0.85;;;12.10;99.90;;;;;;5078459;28;20201;-79
2023/01/07 07:32:55;;;;;;;0.82;0.80;;;12.00;99.90;;;;;;5080718;28;20508;-79
2023/01/07 07:35:21;;;;;;;0.63;0.60;;;12.00;99.90;;;;;;5079265;28;20173;-80
2023/01/07 07:37:46;;;;;;;1.88;0.95;;;12.10;99.90;;;;;;5079806;28;20257;-79
2023/01/07 07:40:14;;;;;;;3.38;0.73;;;12.10;99.90;;;;;;5078286;28;20155;-82
2023/01/07 07:42:39;;;;;;;0.95;0.70;;;11.90;99.90;;;;;;5080376;28;20674;-81
2023/01/07 07:45:06;;;;;;;1.00;0.80;;;11.90;99.90;;;;;;5077079;28;20189;-80
2023/01/07 07:47:31;;;;;;;0.47;0.47;;;12.00;99.90;;;;;;5080438;28;20730;-80
2023/01/07 07:49:57;;;;;;;0.60;0.60;;;12.00;99.90;;;;;;5080918;28;20170;-90
2023/01/07 07:52:23;;;;;;;0.60;0.60;;;11.90;99.90;;;;;;5078631;28;20166;-80
2023/01/07 07:54:48;;;;;;;0.70;0.70;;;11.90;99.90;;;;;;5082398;28;20194;-81
2023/01/07 07:57:14;;;;;;;1.05;0.60;;;12.00;99.90;;;;;;5081753;28;20163;-80
2023/01/07 07:59:40;;;;;;;0.75;0.68;;;12.00;99.90;;;;;;5077182;28;20167;-80
2023/01/07 08:02:18;;;;;;;0.60;0.60;;;12.10;99.90;;;;;;5083304;28;20171;-81
2023/01/07 08:04:45;;;;;;;0.70;0.70;;;12.00;99.90;;;;;;5081193;28;20188;-89
2023/01/07 08:07:11;;;;;;;0.82;0.63;;;12.10;99.90;;;;;;5085342;28;20210;-80
2023/01/07 08:09:37;;;;;;;1.30;0.85;;;12.10;99.90;;;;;;5078591;28;20254;-80
2023/01/07 08:12:05;;;;;;;1.05;0.75;;;12.20;99.90;;;;;;5079810;28;20202;-80
2023/01/07 08:14:31;;;;;;;4.43;1.25;;;12.10;99.90;;;;;;5078425;28;20190;-80
2023/01/07 08:16:56;;;;;;;0.60;0.60;;;12.20;99.90;;;;;;5076998;28;20257;-88
2023/01/07 08:19:22;;;;;;;1.08;0.77;;;12.10;99.90;;;;;;5078023;28;20163;-80
2023/01/07 08:21:49;;;;;;;6.90;0.90;;;12.00;99.90;;;;;;5079758;28;20177;-80
2023/01/07 08:24:14;;;;;;;3.55;0.80;;;11.90;99.90;;;;;;5078087;28;20186;-81
2023/01/07 08:26:40;;;;;;;1.02;0.93;;;12.00;99.90;;;;;;5081778;28;20638;-81
2023/01/07 08:29:06;;;;;;;0.73;0.70;;;12.00;99.90;;;;;;5089337;28;20213;-85
2023/01/07 08:31:31;;;;;;;1.10;0.68;;;12.10;99.90;;;;;;5081749;28;20182;-80
2023/01/07 08:33:57;;;;;;;0.82;0.80;;;11.80;99.90;;;;;;5073847;28;20265;-81
2023/01/07 08:36:22;;;;;;;2.95;0.80;;;11.80;99.90;;;;;;5071630;28;20167;-83
2023/01/07 08:38:52;;;;;;;1.38;0.93;;;11.80;99.90;;;;;;5072698;28;20167;-80
2023/01/07 08:41:23;;;;;;;5.28;0.90;;;11.70;99.90;;;;;;5073116;28;20174;-81
2023/01/07 08:43:49;;;;;;;1.17;0.85;;;11.60;99.90;;;;;;5073346;28;20202;-80
2023/01/07 08:46:15;;;;;;;1.00;0.80;;;11.60;99.90;;;;;;5076342;28;20654;-88
2023/01/07 08:48:41;;;;;;;1.25;0.85;;;11.60;99.90;;;;;;5078606;28;20202;-80
2023/01/07 08:51:06;;;;;;;1.67;1.38;;;11.50;99.90;;;;;;5075019;28;20159;-80
2023/01/07 08:53:33;;;;;;;1.23;1.10;;;11.50;99.90;;;;;;5074972;28;20239;-80
2023/01/07 08:55:59;;;;;;;0.82;0.70;;;11.60;99.90;;;;;;5075759;28;20159;-80
2023/01/07 08:58:25;;;;;;;1.98;1.05;;;11.50;99.90;;;;;;5076197;28;20170;-80
2023/01/07 09:00:51;;;;;;;1.98;0.80;;;11.60;99.90;;;;;;5076444;28;20174;-90
2023/01/07 09:03:17;;;;;;;2.58;0.70;;;11.50;99.90;;;;;;5075728;28;20196;-89
2023/01/07 09:05:45;;;;;;;0.82;0.82;;;11.40;99.90;;;;;;5075431;28;20242;-80
2023/01/07 09:08:10;;;;;;;0.73;0.73;;;11.40;99.90;;;;;;5075363;28;20284;-80
2023/01/07 09:10:36;;;;;;;1.02;0.88;;;11.60;99.90;;;;;;5075274;28;20631;-85
2023/01/07 09:13:02;;;;;;;0.82;0.80;;;11.60;99.90;;;;;;5075763;28;20183;-82
2023/01/07 09:15:27;;;;;;;1.27;0.82;;;11.60;99.90;;;;;;5075416;28;20162;-83
2023/01/07 09:17:53;;;;;;;0.77;0.65;;;11.60;99.90;;;;;;5074683;28;20174;-85
2023/01/07 09:20:19;;;;;;;1.60;0.75;;;11.70;99.90;;;;;;5075699;28;20284;-82
2023/01/07 09:22:44;;;;;;;0.70;0.70;;;11.60;99.90;;;;;;5075368;28;20167;-81
2023/01/07 09:25:10;;;;;;;0.95;0.70;;;11.60;99.90;;;;;;5074838;28;20674;-80
2023/01/07 09:27:36;;;;;;;0.52;0.52;;;11.50;99.90;;;;;;5075480;28;20546;-81
2023/01/07 09:30:03;;;;;;;1.10;1.00;;;11.60;99.90;;;;;;5073853;28;20174;-82
2023/01/07 09:32:29;;;;;;;1.58;0.90;;;11.60;99.90;;;;;;5073599;28;20554;-82
2023/01/07 09:34:54;;;;;;;1.17;0.70;;;11.70;99.90;;;;;;5073591;28;20190;-81
2023/01/07 09:37:21;;;;;;;0.70;0.70;;;11.50;99.90;;;;;;5073626;28;20202;-82
2023/01/07 09:39:47;;;;;;;0.70;0.70;;;11.60;99.90;;;;;;5073561;28;20698;-81
2023/01/07 09:42:30;;;;;;;2.63;1.10;;;11.60;99.90;;;;;;5074837;28;20212;-82
2023/01/07 09:44:59;;;;;;;1.05;0.90;;;11.70;99.90;;;;;;5073621;28;20324;-81
2023/01/07 09:47:28;;;;;;;1.67;0.90;;;11.80;99.90;;;;;;5073454;28;20257;-82
2023/01/07 09:49:57;;;;;;;0.90;0.80;;;11.90;99.90;;;;;;5073207;28;20169;-81
2023/01/07 09:52:35;;;;;;;0.73;0.73;;;11.80;99.90;;;;;;5073260;28;20170;-80
2023/01/07 09:55:13;;;;;;;1.33;0.93;;;11.80;99.90;;;;;;5074081;28;20190;-86
2023/01/07 09:57:39;;;;;;;0.80;0.80;;;11.80;99.90;;;;;;5075491;28;20182;-82
2023/01/07 10:00:15;;;;;;;0.70;0.70;;;11.80;99.90;;;;;;5075231;28;20495;-78
2023/01/07 10:02:49;;;;;;;1.70;1.00;;;11.80;99.90;;;;;;5074801;28;20178;-80
2023/01/07 10:05:40;;;;;;;1.27;1.00;;;11.70;99.90;;;;;;5078227;28;20655;-80
2023/01/07 10:08:36;;;;;;;0.73;0.73;;;11.80;99.90;;;;;;5074875;28;20221;-79
2023/01/07 10:11:36;;;;;;;3.22;1.17;;;11.80;99.90;;;;;;5075216;28;20237;-79
2023/01/07 10:14:27;;;;;;;1.60;0.80;;;11.80;99.90;;;;;;5074684;28;20285;-79
2023/01/07 10:17:33;;;;;;;0.90;0.73;;;11.80;99.90;;;;;;5073291;28;20182;-79
2023/01/07 10:20:19;;;;;;;0.70;0.70;;;11.90;99.90;;;;;;5072974;28;20182;-79
2023/01/07 10:22:51;;;;;;;0.65;0.65;;;11.90;99.90;;;;;;5073930;28;20170;-79
2023/01/07 10:25:30;;;;;;;1.40;1.20;;;11.90;99.90;;;;;;5074019;28;20201;-79
2023/01/07 10:28:01;;;;;;;1.05;0.90;;;11.90;99.90;;;;;;5074297;28;20242;-79
2023/01/07 10:30:29;;;;;;;1.10;1.00;;;12.00;99.90;;;;;;5074506;28;20167;-79
2023/01/07 10:33:27;;;;;;;1.40;0.68;;;12.00;99.90;;;;;;5074122;28;20200;-79
2023/01/07 10:36:17;;;;;;;0.80;0.80;;;12.00;99.90;;;;;;5073851;28;20175;-79
2023/01/07 10:38:52;;;;;;;0.85;0.82;;;12.00;99.90;;;;;;5074498;28;20270;-79
2023/01/07 10:41:24;;;;;;;6.45;0.90;;;12.00;99.90;;;;;;5072571;28;20202;-79
2023/01/07 10:43:52;;;;;;;4.95;0.90;;;12.10;99.90;;;;;;5074619;28;20416;-79
2023/01/07 10:46:37;;;;;;;1.45;1.05;;;12.00;99.90;;;;;;5074448;28;20170;-79
2023/01/07 10:49:35;;;;;;;1.17;0.90;;;12.10;99.90;;;;;;5074477;28;20178;-79
2023/01/07 10:52:32;;;;;;;1.30;0.80;;;12.10;99.90;;;;;;5073870;28;20272;-78
2023/01/07 10:55:24;;;;;;;1.02;0.90;;;12.20;99.90;;;;;;5074021;28;20248;-79
2023/01/07 10:57:49;;;;;;;1.27;1.17;;;12.20;99.90;;;;;;5073329;28;20177;-79
2023/01/07 11:00:17;;;;;;;0.82;0.82;;;12.40;99.90;;;;;;5083300;28;20166;-79
2023/01/07 11:02:49;;;;;;;2.35;1.00;;;12.60;99.90;;;;;;5073627;28;20158;-79
2023/01/07 11:05:17;;;;;;;3.38;1.20;;;12.60;99.90;;;;;;5073547;28;20182;-80
2023/01/07 11:07:48;;;;;;;1.00;0.90;;;12.70;99.90;;;;;;5073512;28;20244;-81
2023/01/07 11:10:17;;;;;;;0.98;0.98;;;12.80;99.90;;;;;;5072344;28;20162;-82
2023/01/07 11:12:53;;;;;;;2.35;1.20;;;12.80;99.90;;;;;;5073533;28;20174;-81
2023/01/07 11:15:24;;;;;;;0.88;0.85;;;12.80;99.90;;;;;;5072857;28;20256;-80
2023/01/07 11:17:55;;;;;;;1.42;1.00;;;12.80;99.90;;;;;;5076741;28;20178;-79
2023/01/07 11:20:41;;;;;;;1.20;1.00;;;12.70;99.90;;;;;;5072071;28;20519;-81
2023/01/07 11:23:39;;;;;;;2.13;1.27;;;12.70;99.90;;;;;;5059707;28;20695;-80
2023/01/07 11:26:32;;;;;;;1.02;0.73;;;12.70;99.90;;;;;;5052746;28;20194;-77
2023/01/07 11:29:15;;;;;;;2.90;0.73;;;12.80;99.90;;;;;;5052987;28;20198;-79
2023/01/07 11:31:46;;;;;;;1.42;1.10;;;12.90;99.90;;;;;;5052864;28;20159;-81
2023/01/07 11:34:34;;;;;;;3.78;1.77;;;13.10;99.90;;;;;;5053311;28;20189;-78
2023/01/07 11:37:00;;;;;;;1.20;0.80;;;13.00;99.90;;;;;;5051894;28;20218;-78
2023/01/07 11:39:30;;;;;;;1.15;1.05;;;13.20;99.90;;;;;;5051709;28;20173;-80
2023/01/07 11:41:58;;;;;;;1.35;0.90;;;13.20;99.90;;;;;;5054552;28;20519;-78
2023/01/07 11:44:24;;;;;;;1.30;1.20;;;13.10;99.90;;;;;;5052496;28;20207;-79
2023/01/07 11:46:51;;;;;;;1.38;0.90;;;13.20;99.90;;;;;;5052452;28;20179;-79
2023/01/07 11:49:28;;;;;;;0.85;0.80;;;13.00;99.90;;;;;;5052709;28;20174;-79
2023/01/07 11:51:54;;;;;;;1.20;1.10;;;13.00;99.90;;;;;;5052871;28;20177;-79
2023/01/07 11:54:25;;;;;;;0.95;0.90;;;12.90;99.90;;;;;;5051620;28;20199;-77
2023/01/07 11:56:52;;;;;;;1.90;1.13;;;12.70;99.90;;;;;;5052724;28;20168;-78
2023/01/07 11:59:18;;;;;;;1.98;1.00;;;12.70;99.90;;;;;;5052862;28;20258;-78
2023/01/07 12:01:58;;;;;;;2.38;1.27;;;12.70;99.90;;;;;;5053745;28;20652;-78
2023/01/07 12:04:36;;;;;;;3.55;1.30;;;12.60;99.90;;;;;;5054669;28;20187;-79
2023/01/07 12:07:14;;;;;;;0.98;0.90;;;12.70;99.90;;;;;;5052840;28;20690;-79
2023/01/07 12:09:42;;;;;;;0.98;0.98;;;12.60;99.90;;;;;;5053272;28;20159;-78
2023/01/07 12:12:40;;;;;;;0.82;0.75;;;12.70;99.90;;;;;;5053260;28;20516;-78
2023/01/07 12:15:23;;;;;;;1.00;0.85;;;12.80;99.90;;;;;;5052491;28;20195;-78
2023/01/07 12:18:20;;;;;;;1.52;1.00;;;12.70;99.90;;;;;;5052216;28;20231;-78
2023/01/07 12:20:55;;;;;;;1.35;0.98;;;12.70;99.90;;;;;;5054392;28;20183;-78
2023/01/07 12:23:33;;;;;;;1.00;0.90;;;12.80;99.90;;;;;;5059892;28;20558;-78
2023/01/07 12:26:15;;;;;;;2.30;1.30;;;12.90;99.90;;;;;;5058327;28;20167;-78
2023/01/07 12:29:40;;;;;;;0.85;0.85;;;12.90;99.90;;;;;;5059344;28;20690;-81
2023/01/07 12:32:26;;;;;;;1.50;1.05;;;13.00;99.90;;;;;;5068139;28;20174;-79
2023/01/07 12:35:26;;;;;;;1.20;0.80;;;12.90;99.90;;;;;;5074129;28;20718;-80
2023/01/07 12:37:58;;;;;;;0.80;0.80;;;12.80;99.90;;;;;;5045078;28;20619;-78
2023/01/07 12:40:38;;;;;;;5.32;1.48;;;12.70;99.90;;;;;;5056110;28;20167;-78
2023/01/07 12:43:20;;;;;;;5.65;1.00;;;12.80;99.90;;;;;;5056481;28;20182;-78
2023/01/07 12:45:56;;;;;;;1.08;0.98;;;12.80;99.90;;;;;;5055821;28;20159;-87
2023/01/07 12:48:28;;;;;;;0.80;0.80;;;12.80;99.90;;;;;;5054380;28;20574;-79
2023/01/07 12:50:58;;;;;;;0.98;0.80;;;12.90;99.90;;;;;;5056462;28;20221;-78
2023/01/07 12:53:37;;;;;;;1.77;0.93;;;12.90;99.90;;;;;;5056054;28;20244;-79
2023/01/07 12:56:12;;;;;;;1.00;0.90;;;13.10;99.90;;;;;;5054258;28;20235;-79
2023/01/07 12:58:53;;;;;;;1.25;1.15;;;12.90;99.90;;;;;;5054207;28;20224;-78
2023/01/07 13:01:24;;;;;;;0.73;0.73;;;13.00;99.90;;;;;;5056265;28;20222;-78
2023/01/07 13:04:06;;;;;;;2.55;0.90;;;13.00;99.90;;;;;;5061147;28;20187;-79
2023/01/07 13:06:52;;;;;;;1.48;1.15;;;12.90;99.90;;;;;;5059195;28;20746;-79
2023/01/07 13:09:21;;;;;;;1.42;1.15;;;12.90;99.90;;;;;;5060279;28;20179;-79
2023/01/07 13:15:01;;;;;;;2.15;1.10;;;12.90;99.90;;;;;;5059193;28;20201;-79